X  Close Metar Aviation Weather Data     EBBR Brussels
Temperature
10°C Temperature
6°C Dewpoint
76% Humidity



Wind
10 KM/H
6 MPH
3 M/S
5 KTS



240°
WSW
Current Conditions

Mostly Cloudy Mostly Cloudy
Pressure 998.92 (hPa) - 29.5 (inHg)
Visibility 6.2 (mile) - 10 (km)
Airport
Airport-code EBBR

Location: Brussels
Distance: 14 (km)

Metar:
EBBR 042350Z 24005KT 9999 BKN042 10/06 Q0999 NOSIG

Time: 2020-06-05 01:50 CEST